createdAt,value
2023-03-29T00:01:53.128Z,97064.53
2023-03-29T00:03:54.741Z,97056.97
2023-03-29T00:06:02.908Z,97047.63
2023-03-29T00:08:04.732Z,97042.03
2023-03-29T00:10:07.524Z,97042.91
2023-03-29T00:12:11.009Z,97047.56
2023-03-29T00:14:13.273Z,97050.09
2023-03-29T00:16:15.186Z,97042.53
2023-03-29T00:18:16.822Z,97032.84
2023-03-29T00:20:18.501Z,97033.44
2023-03-29T00:22:20.244Z,97031.72
2023-03-29T00:24:23.732Z,97025.38
2023-03-29T00:26:25.475Z,97027.56
2023-03-29T00:28:27.106Z,97021.88
2023-03-29T00:30:28.752Z,97013.88
2023-03-29T00:32:30.705Z,97012.88
2023-03-29T00:34:32.324Z,97001.81
2023-03-29T00:36:34.165Z,97007.84
2023-03-29T00:38:37.119Z,96998.31
2023-03-29T00:40:44.800Z,96996.44
2023-03-29T00:42:46.724Z,96991.63
2023-03-29T00:45:01.814Z,96992.88
2023-03-29T00:47:03.590Z,96999.75
2023-03-29T00:49:12.755Z,96990.63
2023-03-29T00:51:18.824Z,96999.56
2023-03-29T00:53:27.440Z,96996.88
2023-03-29T00:55:33.685Z,96989.56
2023-03-29T00:57:35.702Z,96991.84
2023-03-29T00:59:41.823Z,96971.19
2023-03-29T01:01:54.400Z,96972.41
2023-03-29T01:04:08.372Z,96969.66
2023-03-29T01:06:11.436Z,96966.72
2023-03-29T01:08:21.579Z,96965.75
2023-03-29T01:10:43.819Z,96961.59
2023-03-29T01:12:53.098Z,96965.09
2023-03-29T01:15:01.913Z,96956.06
2023-03-29T01:17:04.481Z,96956.38
2023-03-29T01:19:12.148Z,96957.53
2023-03-29T01:21:29.276Z,96963.03
2023-03-29T01:23:58.322Z,96958.38
2023-03-29T01:26:14.052Z,96962.78
2023-03-29T01:28:21.235Z,96943.44
2023-03-29T01:30:30.432Z,96942.63
2023-03-29T01:32:39.263Z,96936.06
2023-03-29T01:34:44.852Z,96937.81
2023-03-29T01:37:00.262Z,96934.72
2023-03-29T01:39:06.882Z,96927.69
2023-03-29T01:41:09.948Z,96921.28
2023-03-29T01:43:17.495Z,96929.06
2023-03-29T01:45:21.903Z,96922.38
2023-03-29T01:47:38.820Z,96927.16
2023-03-29T01:49:52.138Z,96917.78
2023-03-29T01:51:59.723Z,96910.56
2023-03-29T01:54:10.220Z,96916.78
2023-03-29T01:56:17.250Z,96917.53
2023-03-29T01:58:22.316Z,96919.88
2023-03-29T02:00:27.478Z,96910.34
2023-03-29T02:02:31.937Z,96914.25
2023-03-29T02:04:41.424Z,96909.69
2023-03-29T02:06:43.503Z,96908.22
2023-03-29T02:08:46.621Z,96905.50
2023-03-29T02:10:49.557Z,96909.69
2023-03-29T02:12:54.042Z,96902.00
2023-03-29T02:14:57.930Z,96908.38
2023-03-29T02:17:22.529Z,96890.75
2023-03-29T02:19:25.217Z,96894.28
2023-03-29T02:21:33.913Z,96891.13
2023-03-29T02:23:45.457Z,96891.94
2023-03-29T02:25:50.811Z,96892.91
2023-03-29T02:27:53.542Z,96884.34
2023-03-29T02:29:55.363Z,96890.56
2023-03-29T02:32:12.713Z,96881.25
2023-03-29T02:34:26.577Z,96884.34
2023-03-29T02:36:50.332Z,96883.94
2023-03-29T02:38:53.166Z,96882.56
2023-03-29T02:40:56.192Z,96868.78
2023-03-29T02:43:01.948Z,96874.47
2023-03-29T02:45:10.357Z,96862.06
2023-03-29T02:47:26.737Z,96859.97
2023-03-29T02:49:28.855Z,96866.63
2023-03-29T02:51:37.328Z,96862.97
2023-03-29T02:53:43.623Z,96865.13
2023-03-29T02:55:47.056Z,96859.78
2023-03-29T02:57:48.750Z,96861.38
2023-03-29T02:59:50.385Z,96855.38
2023-03-29T03:01:55.263Z,96848.28
2023-03-29T03:03:57.704Z,96854.84
2023-03-29T03:06:01.669Z,96842.78
2023-03-29T03:08:07.110Z,96851.91
2023-03-29T03:10:10.044Z,96845.22
2023-03-29T03:12:12.648Z,96842.25
2023-03-29T03:14:14.227Z,96847.41
2023-03-29T03:16:15.814Z,96837.50
2023-03-29T03:18:17.452Z,96834.47
2023-03-29T03:20:22.184Z,96832.66
2023-03-29T03:22:24.864Z,96824.19
2023-03-29T03:24:28.066Z,96823.34
2023-03-29T03:26:32.546Z,96825.16
2023-03-29T03:28:34.241Z,96832.81
2023-03-29T03:30:39.107Z,96826.28
2023-03-29T03:32:54.763Z,96835.66
2023-03-29T03:34:56.262Z,96839.47
2023-03-29T03:37:03.367Z,96840.75
2023-03-29T03:39:14.528Z,96838.31
2023-03-29T03:41:20.001Z,96834.69
2023-03-29T03:43:22.603Z,96832.09
2023-03-29T03:45:27.821Z,96834.63
2023-03-29T03:47:43.143Z,96822.81
2023-03-29T03:49:57.304Z,96821.63
2023-03-29T03:52:00.889Z,96812.59
2023-03-29T03:54:02.720Z,96818.66
2023-03-29T03:56:10.303Z,96821.75
2023-03-29T03:58:37.582Z,96829.97
2023-03-29T04:00:41.633Z,96831.28
2023-03-29T04:02:57.577Z,96830.63
2023-03-29T04:05:03.551Z,96829.41
2023-03-29T04:07:15.031Z,96835.56
2023-03-29T04:09:33.335Z,96831.97
2023-03-29T04:11:56.048Z,96836.28
2023-03-29T04:13:57.731Z,96825.53
2023-03-29T04:16:03.847Z,96817.22
2023-03-29T04:18:07.305Z,96825.72
2023-03-29T04:20:18.743Z,96819.50
2023-03-29T04:22:20.897Z,96814.53
2023-03-29T04:24:23.228Z,96820.44
2023-03-29T04:26:45.030Z,96815.88
2023-03-29T04:28:54.192Z,96815.16
2023-03-29T04:31:05.199Z,96812.16
2023-03-29T04:33:21.138Z,96809.13
2023-03-29T04:35:28.822Z,96817.94
2023-03-29T04:37:31.539Z,96815.56
2023-03-29T04:39:34.251Z,96809.13
2023-03-29T04:41:39.099Z,96812.22
2023-03-29T04:43:50.508Z,96815.28
2023-03-29T04:45:57.730Z,96806.63
2023-03-29T04:48:15.607Z,96802.34
2023-03-29T04:50:19.394Z,96798.59
2023-03-29T04:52:23.949Z,96802.00
2023-03-29T04:54:26.486Z,96789.00
2023-03-29T04:56:52.725Z,96793.06
2023-03-29T04:59:08.114Z,96791.91
2023-03-29T05:01:10.277Z,96791.25
2023-03-29T05:03:18.591Z,96792.38
2023-03-29T05:05:28.481Z,96789.84
2023-03-29T05:07:35.636Z,96791.47
2023-03-29T05:09:37.860Z,96789.63
2023-03-29T05:11:39.839Z,96791.16
2023-03-29T05:13:42.511Z,96792.31
2023-03-29T05:15:44.168Z,96794.56
2023-03-29T05:17:45.897Z,96797.25
2023-03-29T05:19:47.829Z,96791.47
2023-03-29T05:21:51.043Z,96794.53
2023-03-29T05:23:56.337Z,96786.97
2023-03-29T05:26:23.393Z,96791.59
2023-03-29T05:28:27.882Z,96794.72
2023-03-29T05:30:29.507Z,96790.94
2023-03-29T05:32:49.091Z,96800.44
2023-03-29T05:34:54.023Z,96790.44
2023-03-29T05:36:56.844Z,96793.91
2023-03-29T05:38:59.790Z,96788.03
2023-03-29T05:41:02.056Z,96791.41
2023-03-29T05:43:22.345Z,96789.47
2023-03-29T05:45:24.704Z,96784.31
2023-03-29T05:47:26.825Z,96782.91
2023-03-29T05:49:28.820Z,96783.09
2023-03-29T05:51:42.617Z,96784.84
2023-03-29T05:53:45.196Z,96787.53
2023-03-29T05:55:47.234Z,96783.03
2023-03-29T05:57:51.492Z,96785.63
2023-03-29T05:59:57.082Z,96789.78
2023-03-29T06:02:00.483Z,96786.50
2023-03-29T06:04:03.492Z,96779.72
2023-03-29T06:06:16.386Z,96792.44
2023-03-29T06:08:18.414Z,96784.66
2023-03-29T06:10:37.594Z,96783.66
2023-03-29T06:13:07.502Z,96783.28
2023-03-29T06:15:13.185Z,96783.00
2023-03-29T06:17:47.713Z,96783.06
2023-03-29T06:19:50.408Z,96773.16
2023-03-29T06:21:54.184Z,96774.34
2023-03-29T06:23:59.980Z,96778.59
2023-03-29T06:26:05.603Z,96779.75
2023-03-29T06:28:07.601Z,96778.25
2023-03-29T06:30:10.594Z,96783.25
2023-03-29T06:32:12.638Z,96790.94
2023-03-29T06:34:22.352Z,96792.91
2023-03-29T06:36:34.246Z,96792.91
2023-03-29T06:38:36.380Z,96794.47
2023-03-29T06:41:05.084Z,96797.16
2023-03-29T06:43:26.179Z,96796.78
2023-03-29T06:45:36.276Z,96798.72
2023-03-29T06:47:42.949Z,96799.00
2023-03-29T06:49:44.797Z,96797.91
2023-03-29T06:52:02.026Z,96796.78
2023-03-29T06:54:04.131Z,96800.59
2023-03-29T06:56:09.308Z,96796.00
2023-03-29T06:58:22.732Z,96807.50
2023-03-29T07:00:30.948Z,96799.06
2023-03-29T07:02:41.085Z,96818.63
2023-03-29T07:04:46.196Z,96807.13
2023-03-29T07:07:01.540Z,96813.66
2023-03-29T07:09:06.650Z,96815.59
2023-03-29T07:11:37.214Z,96825.94
2023-03-29T07:13:57.666Z,96818.25
2023-03-29T07:16:00.709Z,96811.34
2023-03-29T07:18:28.342Z,96815.16
2023-03-29T07:20:30.566Z,96813.63
2023-03-29T07:22:43.417Z,96822.84
2023-03-29T07:24:45.030Z,96823.19
2023-03-29T07:26:59.988Z,96826.66
2023-03-29T07:29:04.656Z,96834.66
2023-03-29T07:31:10.768Z,96836.59
2023-03-29T07:33:19.069Z,96818.06
2023-03-29T07:35:30.902Z,96822.66
2023-03-29T07:37:34.256Z,96830.34
2023-03-29T07:39:37.211Z,96822.22
2023-03-29T07:42:01.666Z,96832.47
2023-03-29T07:44:09.085Z,96819.28
2023-03-29T07:46:11.135Z,96825.38
2023-03-29T07:48:14.427Z,96831.88
2023-03-29T07:50:24.152Z,96832.34
2023-03-29T07:52:29.993Z,96833.66
2023-03-29T07:54:32.647Z,96836.69
2023-03-29T07:56:52.095Z,96843.97
2023-03-29T07:59:14.115Z,96838.16
2023-03-29T08:01:19.820Z,96848.63
2023-03-29T08:03:40.288Z,96847.34
2023-03-29T08:05:43.261Z,96849.00
2023-03-29T08:07:47.065Z,96835.84
2023-03-29T08:09:59.990Z,96836.66
2023-03-29T08:12:30.310Z,96842.81
2023-03-29T08:14:33.849Z,96840.84
2023-03-29T08:16:47.091Z,96841.00
2023-03-29T08:18:50.992Z,96831.34
2023-03-29T08:20:54.384Z,96835.00
2023-03-29T08:22:57.112Z,96831.72
2023-03-29T08:25:07.347Z,96833.59
2023-03-29T08:27:14.104Z,96837.34
2023-03-29T08:29:16.030Z,96834.44
2023-03-29T08:31:18.503Z,96840.69
2023-03-29T08:33:20.640Z,96841.34
2023-03-29T08:35:28.971Z,96836.41
2023-03-29T08:37:41.442Z,96834.78
2023-03-29T08:39:45.864Z,96840.41
2023-03-29T08:43:01.903Z,96840.97
2023-03-29T08:45:18.946Z,96829.31
2023-03-29T08:47:34.485Z,96835.78
2023-03-29T08:49:40.293Z,96846.13
2023-03-29T08:51:52.976Z,96836.06
2023-03-29T08:54:20.544Z,96839.47
2023-03-29T08:56:46.140Z,96835.66
2023-03-29T08:59:02.332Z,96830.31
2023-03-29T09:01:11.285Z,96827.88
2023-03-29T09:03:28.492Z,96830.03
2023-03-29T09:05:38.117Z,96826.88
2023-03-29T09:07:54.566Z,96827.00
2023-03-29T09:09:56.995Z,96834.97
2023-03-29T09:12:42.680Z,96831.13
2023-03-29T09:15:14.131Z,96836.31
2023-03-29T09:17:32.119Z,96840.19
2023-03-29T09:19:46.177Z,96840.72
2023-03-29T09:22:02.921Z,96833.00
2023-03-29T09:24:15.576Z,96837.09
2023-03-29T09:26:37.100Z,96837.63
2023-03-29T09:29:13.057Z,96836.31
2023-03-29T09:31:24.012Z,96837.34
2023-03-29T09:33:42.598Z,96842.25
2023-03-29T09:36:07.819Z,96834.59
2023-03-29T09:38:13.970Z,96837.81
2023-03-29T09:40:20.822Z,96838.59
2023-03-29T09:42:32.180Z,96838.72
2023-03-29T09:44:43.920Z,96837.81
2023-03-29T09:46:57.126Z,96842.25
2023-03-29T09:49:06.523Z,96844.75
2023-03-29T09:51:09.819Z,96839.31
2023-03-29T09:53:15.778Z,96835.38
2023-03-29T09:55:28.370Z,96836.28
2023-03-29T09:57:58.320Z,96830.03
2023-03-29T10:00:05.646Z,96838.31
2023-03-29T10:02:15.757Z,96838.25
2023-03-29T10:04:17.809Z,96836.16
2023-03-29T10:06:26.869Z,96827.03
2023-03-29T10:08:34.802Z,96828.28
2023-03-29T10:10:38.483Z,96831.56
2023-03-29T10:12:41.577Z,96831.78
2023-03-29T10:14:46.475Z,96828.78
2023-03-29T10:16:55.741Z,96843.94
2023-03-29T10:18:57.611Z,96838.41
2023-03-29T10:21:01.225Z,96841.44
2023-03-29T10:23:06.918Z,96841.44
2023-03-29T10:25:13.601Z,96840.81
2023-03-29T10:27:21.416Z,96851.13
2023-03-29T10:29:24.625Z,96836.78
2023-03-29T10:31:31.072Z,96837.31
2023-03-29T10:33:35.562Z,96833.47
2023-03-29T10:35:44.038Z,96825.16
2023-03-29T10:37:49.387Z,96835.53
2023-03-29T10:39:51.868Z,96836.84
2023-03-29T10:41:53.553Z,96829.00
2023-03-29T10:43:55.500Z,96830.09
2023-03-29T10:46:08.132Z,96835.00
2023-03-29T10:48:15.275Z,96833.44
2023-03-29T10:50:17.145Z,96834.47
2023-03-29T10:52:18.707Z,96833.66
2023-03-29T10:54:24.079Z,96835.63
2023-03-29T10:56:46.969Z,96836.38
2023-03-29T10:59:27.357Z,96818.47
2023-03-29T11:01:31.621Z,96819.00
2023-03-29T11:03:45.016Z,96808.38
2023-03-29T11:06:04.526Z,96811.19
2023-03-29T11:08:26.464Z,96807.03
2023-03-29T11:10:50.367Z,96803.88
2023-03-29T11:13:23.388Z,96803.13
2023-03-29T11:15:55.416Z,96803.28
2023-03-29T11:18:34.322Z,96806.09
2023-03-29T11:20:48.385Z,96801.16
2023-03-29T11:22:55.883Z,96803.06
2023-03-29T11:25:09.987Z,96801.56
2023-03-29T11:27:35.775Z,96808.19
2023-03-29T11:29:59.113Z,96806.06
2023-03-29T11:32:23.313Z,96801.97
2023-03-29T11:34:49.482Z,96806.00
2023-03-29T11:37:03.817Z,96812.22
2023-03-29T11:39:26.568Z,96802.47
2023-03-29T11:41:32.020Z,96797.00
2023-03-29T11:43:33.536Z,96802.56
2023-03-29T11:45:44.960Z,96801.78
2023-03-29T11:47:51.277Z,96805.47
2023-03-29T11:50:03.875Z,96801.84
2023-03-29T11:52:24.406Z,96800.56
2023-03-29T11:54:42.336Z,96796.38
2023-03-29T11:56:47.340Z,96790.97
2023-03-29T11:58:57.616Z,96781.97
2023-03-29T12:01:07.290Z,96783.69
2023-03-29T12:03:38.736Z,96773.75
2023-03-29T12:05:55.556Z,96772.72
2023-03-29T12:08:03.702Z,96771.09
2023-03-29T12:10:08.339Z,96777.97
2023-03-29T12:12:17.710Z,96779.16
2023-03-29T12:14:28.326Z,96777.88
2023-03-29T12:16:51.810Z,96779.81
2023-03-29T12:19:01.311Z,96776.09
2023-03-29T12:21:08.926Z,96771.53
2023-03-29T12:23:15.688Z,96774.00
2023-03-29T12:25:23.781Z,96785.84
2023-03-29T12:27:31.374Z,96788.66
2023-03-29T12:30:02.404Z,96784.84
2023-03-29T12:32:19.464Z,96775.50
2023-03-29T12:34:43.112Z,96769.53
2023-03-29T12:37:14.854Z,96775.88
2023-03-29T12:39:37.190Z,96765.25
2023-03-29T12:42:15.020Z,96765.75
2023-03-29T12:44:35.288Z,96766.66
2023-03-29T12:46:58.563Z,96766.59
2023-03-29T12:49:07.785Z,96760.06
2023-03-29T12:51:16.890Z,96759.75
2023-03-29T12:53:23.365Z,96763.94
2023-03-29T12:55:46.833Z,96757.53
2023-03-29T12:58:03.691Z,96760.44
2023-03-29T13:00:32.732Z,96747.72
2023-03-29T13:02:37.208Z,96747.72
2023-03-29T13:04:57.249Z,96756.28
2023-03-29T13:07:04.857Z,96738.72
2023-03-29T13:09:23.794Z,96739.56
2023-03-29T13:11:47.841Z,96746.63
2023-03-29T13:13:50.584Z,96749.03
2023-03-29T13:15:52.253Z,96742.91
2023-03-29T13:18:22.195Z,96735.22
2023-03-29T13:20:43.572Z,96741.91
2023-03-29T13:23:07.148Z,96734.53
2023-03-29T13:25:29.957Z,96740.25
2023-03-29T13:27:56.128Z,96730.38
2023-03-29T13:30:32.265Z,96728.22
2023-03-29T13:32:58.213Z,96737.25
2023-03-29T13:35:14.623Z,96743.31
2023-03-29T13:37:40.347Z,96737.53
2023-03-29T13:39:50.459Z,96737.00
2023-03-29T13:41:54.255Z,96736.06
2023-03-29T13:43:56.673Z,96735.22
2023-03-29T13:45:58.331Z,96731.16
2023-03-29T13:48:25.086Z,96736.19
2023-03-29T13:50:36.913Z,96731.69
2023-03-29T13:52:51.380Z,96731.38
2023-03-29T13:54:56.057Z,96722.75
2023-03-29T13:57:15.720Z,96712.91
2023-03-29T13:59:22.041Z,96715.94
2023-03-29T14:01:29.150Z,96712.47
2023-03-29T14:03:40.403Z,96716.38
2023-03-29T14:05:52.110Z,96713.34
2023-03-29T14:07:55.378Z,96703.34
2023-03-29T14:09:58.954Z,96706.84
2023-03-29T14:12:01.299Z,96702.34
2023-03-29T14:14:05.136Z,96705.84
2023-03-29T14:16:11.902Z,96709.44
2023-03-29T14:18:17.841Z,96689.31
2023-03-29T14:20:19.594Z,96693.53
2023-03-29T14:22:21.762Z,96693.09
2023-03-29T14:24:27.455Z,96698.22
2023-03-29T14:26:35.731Z,96694.53
2023-03-29T14:28:46.323Z,96700.75
2023-03-29T14:30:49.693Z,96698.66
2023-03-29T14:32:52.325Z,96695.97
2023-03-29T14:34:54.146Z,96698.91
2023-03-29T14:36:56.511Z,96694.97
2023-03-29T14:39:02.923Z,96696.69
2023-03-29T14:41:05.025Z,96692.13
2023-03-29T14:43:08.238Z,96684.22
2023-03-29T14:45:12.521Z,96681.38
2023-03-29T14:47:27.292Z,96678.00
2023-03-29T14:49:30.065Z,96676.94
2023-03-29T14:51:31.959Z,96675.19
2023-03-29T14:53:38.077Z,96670.09
2023-03-29T14:55:40.515Z,96670.13
2023-03-29T14:57:42.768Z,96678.03
2023-03-29T14:59:54.166Z,96674.22
2023-03-29T15:01:56.398Z,96673.81
2023-03-29T15:04:10.192Z,96667.34
2023-03-29T15:06:13.946Z,96663.97
2023-03-29T15:08:23.375Z,96661.59
2023-03-29T15:10:25.023Z,96661.09
2023-03-29T15:12:30.866Z,96659.94
2023-03-29T15:14:37.057Z,96655.41
2023-03-29T15:16:41.814Z,96650.47
2023-03-29T15:18:45.372Z,96643.34
2023-03-29T15:20:48.338Z,96644.06
2023-03-29T15:23:00.823Z,96637.06
2023-03-29T15:25:03.261Z,96644.88
2023-03-29T15:27:14.819Z,96628.13
2023-03-29T15:29:23.215Z,96627.03
2023-03-29T15:31:28.697Z,96627.34
2023-03-29T15:33:33.678Z,96626.78
2023-03-29T15:35:35.395Z,96627.13
2023-03-29T15:37:37.916Z,96617.28
2023-03-29T15:39:44.089Z,96607.13
2023-03-29T15:41:48.546Z,96608.41
2023-03-29T15:43:50.197Z,96612.94
2023-03-29T15:45:52.322Z,96620.03
2023-03-29T15:47:53.989Z,96614.91
2023-03-29T15:49:55.884Z,96614.00
2023-03-29T15:51:57.456Z,96621.22
2023-03-29T15:53:59.272Z,96619.69
2023-03-29T15:56:07.144Z,96614.56
2023-03-29T15:58:14.854Z,96617.16
2023-03-29T16:00:18.272Z,96602.56
2023-03-29T16:02:23.666Z,96605.25
2023-03-29T16:04:26.055Z,96607.72
2023-03-29T16:06:27.598Z,96606.50
2023-03-29T16:08:29.681Z,96593.13
2023-03-29T16:10:31.211Z,96594.78
2023-03-29T16:12:35.320Z,96586.47
2023-03-29T16:14:48.803Z,96597.25
2023-03-29T16:16:51.636Z,96603.94
2023-03-29T16:18:53.182Z,96600.50
2023-03-29T16:20:54.776Z,96593.19
2023-03-29T16:22:57.359Z,96592.50
2023-03-29T16:24:59.332Z,96586.97
2023-03-29T16:27:01.734Z,96589.69
2023-03-29T16:29:03.350Z,96590.19
2023-03-29T16:31:06.113Z,96584.09
2023-03-29T16:33:08.755Z,96585.91
2023-03-29T16:35:32.088Z,96595.88
2023-03-29T16:37:33.713Z,96586.03
2023-03-29T16:39:35.308Z,96597.09
2023-03-29T16:41:37.158Z,96587.31
2023-03-29T16:43:39.194Z,96579.25
2023-03-29T16:45:41.114Z,96577.84
2023-03-29T16:47:45.842Z,96581.72
2023-03-29T16:49:48.564Z,96574.56
2023-03-29T16:51:50.177Z,96578.19
2023-03-29T16:53:52.233Z,96574.44
2023-03-29T16:55:54.260Z,96579.06
2023-03-29T16:57:56.283Z,96573.38
2023-03-29T16:59:57.995Z,96571.59
2023-03-29T17:01:59.614Z,96574.13
2023-03-29T17:04:01.223Z,96575.00
2023-03-29T17:06:07.237Z,96564.00
2023-03-29T17:08:10.067Z,96572.34
2023-03-29T17:10:12.615Z,96562.81
2023-03-29T17:12:14.458Z,96570.63
2023-03-29T17:14:16.908Z,96568.59
2023-03-29T17:16:18.540Z,96567.50
2023-03-29T17:18:22.241Z,96565.22
2023-03-29T17:20:23.891Z,96567.84
2023-03-29T17:22:25.980Z,96568.59
2023-03-29T17:24:27.540Z,96566.97
2023-03-29T17:26:29.263Z,96566.69
2023-03-29T17:28:30.968Z,96571.31
2023-03-29T17:30:34.260Z,96570.59
2023-03-29T17:32:36.518Z,96562.78
2023-03-29T17:34:38.877Z,96567.38
2023-03-29T17:36:41.225Z,96561.31
2023-03-29T17:38:43.075Z,96560.75
2023-03-29T17:40:52.088Z,96558.47
2023-03-29T17:42:54.147Z,96554.91
2023-03-29T17:44:55.962Z,96555.56
2023-03-29T17:46:57.538Z,96558.28
2023-03-29T17:49:00.209Z,96554.03
2023-03-29T17:51:01.882Z,96553.50
2023-03-29T17:53:03.885Z,96554.13
2023-03-29T17:55:13.265Z,96551.13
2023-03-29T17:57:14.910Z,96555.91
2023-03-29T17:59:17.391Z,96560.97
2023-03-29T18:01:19.536Z,96555.25
2023-03-29T18:03:21.513Z,96549.25
2023-03-29T18:05:23.401Z,96562.31
2023-03-29T18:07:25.020Z,96557.09
2023-03-29T18:09:30.246Z,96556.75
2023-03-29T18:11:32.559Z,96553.16
2023-03-29T18:13:34.572Z,96556.78
2023-03-29T18:15:36.591Z,96549.50
2023-03-29T18:17:39.067Z,96550.59
2023-03-29T18:19:41.091Z,96547.25
2023-03-29T18:21:42.761Z,96546.69
2023-03-29T18:23:46.973Z,96547.56
2023-03-29T18:25:48.506Z,96546.50
2023-03-29T18:27:50.274Z,96534.78
2023-03-29T18:29:51.975Z,96533.28
2023-03-29T18:31:53.727Z,96541.06
2023-03-29T18:33:55.280Z,96548.91
2023-03-29T18:35:56.819Z,96546.81
2023-03-29T18:37:58.966Z,96538.69
2023-03-29T18:40:00.642Z,96534.09
2023-03-29T18:42:03.052Z,96519.03
2023-03-29T18:44:05.261Z,96513.34
2023-03-29T18:46:09.844Z,96520.41
2023-03-29T18:48:11.609Z,96521.69
2023-03-29T18:50:13.238Z,96526.13
2023-03-29T18:52:14.874Z,96538.72
2023-03-29T18:54:17.012Z,96534.16
2023-03-29T18:56:18.557Z,96533.41
2023-03-29T18:58:23.822Z,96552.38
2023-03-29T19:00:25.396Z,96543.91
2023-03-29T19:02:27.037Z,96543.66
2023-03-29T19:04:28.896Z,96540.69
2023-03-29T19:06:31.710Z,96546.88
2023-03-29T19:08:36.767Z,96543.69
2023-03-29T19:10:39.792Z,96548.09
2023-03-29T19:12:41.348Z,96529.91
2023-03-29T19:14:42.912Z,96533.94
2023-03-29T19:16:44.474Z,96525.47
2023-03-29T19:18:46.417Z,96521.94
2023-03-29T19:20:50.850Z,96520.94
2023-03-29T19:22:53.428Z,96517.41
2023-03-29T19:24:55.218Z,96516.50
2023-03-29T19:26:57.283Z,96509.22
2023-03-29T19:29:00.202Z,96515.84
2023-03-29T19:31:03.024Z,96511.31
2023-03-29T19:33:04.555Z,96529.22
2023-03-29T19:35:09.503Z,96517.91
2023-03-29T19:37:11.639Z,96515.19
2023-03-29T19:39:13.174Z,96513.81
2023-03-29T19:41:14.763Z,96503.59
2023-03-29T19:43:16.919Z,96508.97
2023-03-29T19:45:18.653Z,96517.91
2023-03-29T19:47:20.717Z,96511.41
2023-03-29T19:49:22.230Z,96521.31
2023-03-29T19:51:26.927Z,96527.84
2023-03-29T19:53:29.617Z,96514.44
2023-03-29T19:55:31.218Z,96514.84
2023-03-29T19:57:33.412Z,96512.13
2023-03-29T19:59:35.557Z,96510.19
2023-03-29T20:01:39.420Z,96515.09
2023-03-29T20:03:43.541Z,96522.78
2023-03-29T20:05:49.037Z,96505.44
2023-03-29T20:07:50.576Z,96511.28
2023-03-29T20:09:52.184Z,96502.84
2023-03-29T20:11:53.819Z,96509.59
2023-03-29T20:13:55.344Z,96505.41
2023-03-29T20:15:56.996Z,96498.56
2023-03-29T20:18:00.219Z,96492.81
2023-03-29T20:20:04.654Z,96484.34
2023-03-29T20:22:07.905Z,96495.69
2023-03-29T20:24:10.716Z,96485.06
2023-03-29T20:26:12.347Z,96482.81
2023-03-29T20:28:14.531Z,96481.91
2023-03-29T20:30:16.363Z,96471.06
2023-03-29T20:32:18.067Z,96455.59
2023-03-29T20:34:19.610Z,96464.81
2023-03-29T20:36:22.951Z,96465.75
2023-03-29T20:38:25.042Z,96445.97
2023-03-29T20:40:28.651Z,96443.03
2023-03-29T20:42:34.156Z,96447.00
2023-03-29T20:44:37.598Z,96443.16
2023-03-29T20:46:45.988Z,96447.03
2023-03-29T20:48:53.247Z,96434.59
2023-03-29T20:50:55.329Z,96423.91
2023-03-29T20:52:57.086Z,96431.97
2023-03-29T20:54:59.112Z,96425.09
2023-03-29T20:57:01.239Z,96424.25
2023-03-29T20:59:04.204Z,96412.41
2023-03-29T21:01:06.092Z,96415.31
2023-03-29T21:03:08.316Z,96413.53
2023-03-29T21:05:11.193Z,96411.16
2023-03-29T21:07:14.193Z,96413.03
2023-03-29T21:09:17.662Z,96405.09
2023-03-29T21:11:21.037Z,96404.97
2023-03-29T21:13:23.429Z,96408.47
2023-03-29T21:15:24.933Z,96403.56
2023-03-29T21:17:26.937Z,96402.91
2023-03-29T21:19:29.017Z,96396.72
2023-03-29T21:21:30.609Z,96387.34
2023-03-29T21:23:32.181Z,96400.44
2023-03-29T21:25:33.815Z,96396.97
2023-03-29T21:27:36.216Z,96398.91
2023-03-29T21:29:38.605Z,96394.97
2023-03-29T21:31:40.647Z,96382.75
2023-03-29T21:33:45.334Z,96381.44
2023-03-29T21:35:48.122Z,96382.94
2023-03-29T21:37:49.641Z,96385.47
2023-03-29T21:39:51.196Z,96385.06
2023-03-29T21:41:53.195Z,96388.25
2023-03-29T21:43:54.770Z,96382.84
2023-03-29T21:45:57.481Z,96373.75
2023-03-29T21:48:00.447Z,96361.47
2023-03-29T21:50:02.103Z,96370.25
2023-03-29T21:52:03.838Z,96366.78
2023-03-29T21:54:05.763Z,96367.47
2023-03-29T21:56:08.313Z,96357.94
2023-03-29T21:58:10.197Z,96362.16
2023-03-29T22:00:15.484Z,96355.06
2023-03-29T22:02:17.413Z,96361.75
2023-03-29T22:04:33.072Z,96358.81
2023-03-29T22:06:37.657Z,96354.38
2023-03-29T22:08:39.233Z,96353.06
2023-03-29T22:10:43.779Z,96351.28
2023-03-29T22:12:45.312Z,96353.09
2023-03-29T22:14:47.170Z,96349.84
2023-03-29T22:16:51.626Z,96339.03
2023-03-29T22:18:54.126Z,96342.94
2023-03-29T22:20:58.693Z,96343.78
2023-03-29T22:23:03.235Z,96343.69
2023-03-29T22:25:05.738Z,96336.75
2023-03-29T22:27:07.317Z,96350.63
2023-03-29T22:29:08.795Z,96353.66
2023-03-29T22:31:13.105Z,96342.94
2023-03-29T22:33:17.515Z,96336.69
2023-03-29T22:35:19.046Z,96334.06
2023-03-29T22:37:22.489Z,96335.41
2023-03-29T22:39:24.024Z,96333.03
2023-03-29T22:41:27.501Z,96320.13
2023-03-29T22:43:29.115Z,96312.88
2023-03-29T22:45:32.776Z,96320.63
2023-03-29T22:47:35.271Z,96314.97
2023-03-29T22:49:37.093Z,96300.94
2023-03-29T22:51:38.826Z,96309.16
2023-03-29T22:53:40.672Z,96309.16
2023-03-29T22:55:44.753Z,96316.16
2023-03-29T22:57:46.320Z,96316.66
2023-03-29T22:59:47.942Z,96316.50
2023-03-29T23:01:49.902Z,96316.06
2023-03-29T23:03:51.675Z,96314.53
2023-03-29T23:05:55.148Z,96319.84
2023-03-29T23:07:56.742Z,96320.69
2023-03-29T23:09:58.458Z,96312.25
2023-03-29T23:12:01.118Z,96299.75
2023-03-29T23:14:04.065Z,96317.00
2023-03-29T23:16:06.135Z,96304.81
2023-03-29T23:18:07.830Z,96301.72
2023-03-29T23:20:11.252Z,96311.50
2023-03-29T23:22:13.562Z,96312.63
2023-03-29T23:24:19.011Z,96308.22
2023-03-29T23:26:20.923Z,96311.19
2023-03-29T23:28:24.967Z,96312.69
2023-03-29T23:30:26.842Z,96305.16
2023-03-29T23:32:28.650Z,96303.50
2023-03-29T23:34:30.318Z,96297.75
2023-03-29T23:36:31.909Z,96302.03
2023-03-29T23:38:35.198Z,96309.47
2023-03-29T23:40:36.930Z,96300.66
2023-03-29T23:42:39.187Z,96294.13
2023-03-29T23:44:40.706Z,96290.72
2023-03-29T23:46:42.365Z,96296.56
2023-03-29T23:48:48.981Z,96291.41
2023-03-29T23:50:51.190Z,96287.44
2023-03-29T23:52:52.869Z,96285.81
2023-03-29T23:54:54.520Z,96283.06
2023-03-29T23:56:56.430Z,96274.00
2023-03-29T23:58:57.999Z,96279.66
